Time;durP1;ratioP1;P1;durP2;ratioP2;P2;SDS_P1;SDS_P2;PMS_P1;PMS_P2;Temp;Humidity;BMP_temperature;BMP_pressure;BME280_temperature;BME280_humidity;BME280_pressure;Samples;Min_cycle;Max_cycle;Signal;HPM_P1;HPM_P2
2022/03/07 00:01:27;;;;;;;2.05;1.40;;;;;;;0.08;53.04;98645.66;4887299;29;20641;-73
2022/03/07 00:03:55;;;;;;;3.42;1.50;;;;;;;0.10;53.25;98643.81;4883631;29;20063;-71
2022/03/07 00:06:20;;;;;;;2.25;1.00;;;;;;;0.11;53.17;98640.28;4887087;29;20430;-67
2022/03/07 00:08:45;;;;;;;1.85;1.10;;;;;;;0.13;53.45;98638.41;4884509;29;20135;-73
2022/03/07 00:11:10;;;;;;;1.73;1.10;;;;;;;0.13;53.76;98649.75;4885196;29;20493;-72
2022/03/07 00:13:35;;;;;;;1.83;1.20;;;;;;;0.03;54.32;98647.63;4871165;29;20411;-72
2022/03/07 00:16:01;;;;;;;4.13;2.10;;;;;;;0.04;54.26;98639.69;4884432;29;20056;-72
2022/03/07 00:18:25;;;;;;;1.48;1.38;;;;;;;0.12;53.82;98639.34;4889187;29;20044;-72
2022/03/07 00:20:50;;;;;;;1.30;1.20;;;;;;;0.07;54.15;98631.69;4893705;29;20103;-73
2022/03/07 00:23:15;;;;;;;6.40;1.95;;;;;;;0.10;53.94;98639.44;4924415;29;20111;-73
2022/03/07 00:25:41;;;;;;;2.08;1.15;;;;;;;0.16;53.42;98628.66;4888819;29;20044;-70
2022/03/07 00:28:06;;;;;;;3.03;1.75;;;;;;;0.21;53.39;98631.06;4881627;29;20175;-66
2022/03/07 00:30:31;;;;;;;3.53;1.38;;;;;;;0.26;53.28;98634.31;4882724;29;20044;-67
2022/03/07 00:32:56;;;;;;;1.27;1.17;;;;;;;0.24;53.01;98621.28;4883222;29;20052;-67
2022/03/07 00:35:21;;;;;;;2.30;1.25;;;;;;;0.21;53.71;98616.19;4883581;29;20047;-71
2022/03/07 00:37:46;;;;;;;2.17;1.30;;;;;;;0.21;53.46;98624.06;4868047;29;20048;-70
2022/03/07 00:40:11;;;;;;;2.90;1.23;;;;;;;0.18;53.91;98618.97;4886318;29;20507;-72
2022/03/07 00:42:37;;;;;;;1.48;1.33;;;;;;;0.16;53.46;98620.78;4891606;29;20036;-73
2022/03/07 00:45:02;;;;;;;6.13;1.40;;;;;;;0.15;53.63;98620.84;4894364;29;20542;-72
2022/03/07 00:47:28;;;;;;;2.13;1.27;;;;;;;0.17;53.89;98608.53;4891417;29;20112;-72
2022/03/07 00:49:53;;;;;;;2.47;1.08;;;;;;;0.12;54.17;98615.75;4893883;29;20055;-75
2022/03/07 00:52:17;;;;;;;2.80;1.77;;;;;;;0.03;54.90;98611.78;4884929;29;20044;-72
2022/03/07 00:54:42;;;;;;;3.78;1.35;;;;;;;0.09;54.33;98606.28;4866815;29;20873;-72
2022/03/07 00:57:07;;;;;;;1.38;1.20;;;;;;;0.13;53.93;98607.81;4882507;29;20055;-71
2022/03/07 00:59:31;;;;;;;2.78;1.45;;;;;;;0.11;54.33;98601.81;4879914;29;20044;-71
2022/03/07 01:01:56;;;;;;;1.73;1.20;;;;;;;0.16;53.46;98604.22;4881837;29;20415;-72
2022/03/07 01:04:21;;;;;;;1.45;1.15;;;;;;;0.13;54.20;98605.19;4882595;29;20218;-72
2022/03/07 01:06:46;;;;;;;2.22;1.20;;;;;;;0.09;54.16;98601.03;4882049;29;20056;-66
2022/03/07 01:09:11;;;;;;;3.80;1.60;;;;;;;0.07;54.50;98597.63;4874356;29;20048;-66
2022/03/07 01:11:36;;;;;;;1.17;0.95;;;;;;;0.02;54.81;98590.88;4887234;29;20087;-66
2022/03/07 01:14:00;;;;;;;1.75;1.33;;;;;;;0.07;54.65;98607.25;4880302;29;20524;-66
2022/03/07 01:16:26;;;;;;;3.17;1.20;;;;;;;0.09;54.56;98594.94;4880754;29;20079;-67
2022/03/07 01:18:51;;;;;;;3.05;1.38;;;;;;;0.04;54.60;98591.66;4879355;29;20040;-70
2022/03/07 01:21:16;;;;;;;2.72;1.60;;;;;;;0.05;54.66;98590.75;4880515;29;20044;-73
2022/03/07 01:23:42;;;;;;;2.25;1.55;;;;;;;0.09;54.70;98587.09;4881231;29;20040;-73
2022/03/07 01:26:07;;;;;;;1.23;1.08;;;;;;;0.12;54.46;98595.63;4880291;29;20040;-71
2022/03/07 01:28:32;;;;;;;2.50;1.58;;;;;;;0.10;54.71;98589.63;4882019;29;20048;-73
2022/03/07 01:30:56;;;;;;;1.45;1.33;;;;;;;0.12;54.92;98589.53;4883097;29;20044;-73
2022/03/07 01:33:21;;;;;;;1.90;1.38;;;;;;;0.13;54.75;98592.09;4881629;29;20135;-71
2022/03/07 01:35:46;;;;;;;2.45;1.30;;;;;;;0.06;54.85;98581.97;4886007;29;20520;-71
2022/03/07 01:38:10;;;;;;;1.17;0.88;;;;;;;0.06;54.87;98585.44;4887236;29;20131;-70
2022/03/07 01:40:36;;;;;;;3.42;1.80;;;;;;;0.07;55.05;98579.28;4890665;29;20055;-73
2022/03/07 01:43:00;;;;;;;3.67;1.45;;;;;;;0.07;55.13;98583.69;4886130;29;20076;-72
2022/03/07 01:45:25;;;;;;;3.40;1.90;;;;;;;0.09;54.98;98584.47;4864989;29;20602;-74
2022/03/07 01:47:50;;;;;;;2.35;1.40;;;;;;;0.01;55.27;98587.41;4866035;29;20172;-78
2022/03/07 01:50:19;;;;;;;1.48;1.00;;;;;;;0.01;55.56;98597.91;4881344;29;20522;-75
2022/03/07 01:52:47;;;;;;;2.97;1.70;;;;;;;0.09;55.17;98585.31;4850369;29;20068;-76
2022/03/07 01:55:14;;;;;;;1.42;1.00;;;;;;;0.11;55.18;98587.88;4881816;29;20058;-75
2022/03/07 01:57:46;;;;;;;2.17;1.98;;;;;;;0.09;54.51;98590.56;4866450;29;20533;-77
2022/03/07 02:00:15;;;;;;;2.50;1.70;;;;;;;0.06;55.00;98584.59;4850399;29;20078;-75
2022/03/07 02:02:41;;;;;;;2.30;1.67;;;;;;;0.11;54.49;98587.88;4865492;29;20119;-77
2022/03/07 02:05:10;;;;;;;2.53;1.90;;;;;;;0.14;54.77;98588.56;4882077;29;20101;-75
2022/03/07 02:07:40;;;;;;;2.70;1.65;;;;;;;0.13;54.89;98591.25;4882377;29;20055;-76
2022/03/07 02:10:09;;;;;;;3.72;1.98;;;;;;;0.10;54.89;98594.03;4881908;29;20487;-78
2022/03/07 02:12:35;;;;;;;3.42;1.67;;;;;;;0.10;54.72;98596.66;4866967;29;20047;-79
2022/03/07 02:15:02;;;;;;;3.90;1.88;;;;;;;0.15;54.64;98598.13;4865525;29;20060;-72
2022/03/07 02:17:35;;;;;;;1.80;1.58;;;;;;;0.16;54.81;98591.97;4880224;29;20056;-71
2022/03/07 02:20:04;;;;;;;2.42;2.00;;;;;;;0.17;54.99;98596.28;4897295;29;20071;-71
2022/03/07 02:22:34;;;;;;;3.40;1.90;;;;;;;0.20;55.11;98605.78;4880543;29;20040;-72
2022/03/07 02:25:01;;;;;;;2.50;1.45;;;;;;;0.12;54.91;98589.53;4892654;29;20048;-68
2022/03/07 02:27:28;;;;;;;2.83;1.90;;;;;;;0.15;54.68;98595.50;4878566;29;20075;-73
2022/03/07 02:29:53;;;;;;;2.63;1.77;;;;;;;0.15;54.66;98592.88;4879387;29;20073;-70
2022/03/07 02:32:26;;;;;;;2.13;1.67;;;;;;;0.18;54.58;98597.13;4872971;29;20075;-71
2022/03/07 02:34:54;;;;;;;2.10;1.50;;;;;;;0.18;54.53;98598.00;4862288;29;20439;-69
2022/03/07 02:37:19;;;;;;;3.92;2.38;;;;;;;0.12;54.79;98606.13;4879002;29;20539;-71
2022/03/07 02:39:47;;;;;;;3.13;1.83;;;;;;;0.09;54.69;98601.03;4864516;29;20044;-73
2022/03/07 02:42:12;;;;;;;7.85;2.13;;;;;;;0.12;54.92;98594.78;4881621;29;20102;-74
2022/03/07 02:44:39;;;;;;;1.98;1.52;;;;;;;0.17;55.08;98600.69;4879076;29;20055;-73
2022/03/07 02:47:05;;;;;;;3.10;1.85;;;;;;;0.20;55.19;98598.78;4879175;29;20047;-72
2022/03/07 02:49:30;;;;;;;1.52;1.25;;;;;;;0.26;54.60;98601.09;4880741;29;20059;-75
2022/03/07 02:51:55;;;;;;;1.73;1.00;;;;;;;0.30;54.31;98605.28;4880619;29;20039;-75
2022/03/07 02:54:19;;;;;;;5.05;2.15;;;;;;;0.33;54.46;98593.81;4880792;29;20048;-78
2022/03/07 02:56:44;;;;;;;2.38;2.17;;;;;;;0.32;54.64;98603.44;4850000;29;20503;-77
2022/03/07 02:59:10;;;;;;;3.35;1.55;;;;;;;0.29;54.41;98607.97;4863312;29;20092;-73
2022/03/07 03:01:35;;;;;;;2.70;1.17;;;;;;;0.34;54.22;98598.97;4863364;29;20090;-78
2022/03/07 03:04:01;;;;;;;7.47;1.98;;;;;;;0.29;54.67;98602.72;4880237;29;20060;-75
2022/03/07 03:06:25;;;;;;;2.88;1.73;;;;;;;0.31;54.69;98606.13;4882276;29;20036;-75
2022/03/07 03:08:50;;;;;;;4.13;1.90;;;;;;;0.35;54.35;98612.91;4882100;29;20081;-76
2022/03/07 03:11:15;;;;;;;3.10;1.77;;;;;;;0.40;54.30;98594.38;4865380;29;20062;-75
2022/03/07 03:13:40;;;;;;;4.80;1.83;;;;;;;0.44;54.53;98601.16;4882477;29;20134;-78
2022/03/07 03:16:05;;;;;;;6.50;2.60;;;;;;;0.44;54.40;98609.03;4882833;29;20039;-73
2022/03/07 03:18:30;;;;;;;2.45;1.63;;;;;;;0.41;54.34;98596.91;4881949;29;20124;-74
2022/03/07 03:20:55;;;;;;;3.45;1.55;;;;;;;0.40;54.31;98594.38;4864399;29;20040;-75
2022/03/07 03:23:22;;;;;;;1.45;1.30;;;;;;;0.41;54.88;98606.56;4864463;29;20056;-77
2022/03/07 03:25:47;;;;;;;2.53;1.58;;;;;;;0.36;54.68;98610.22;4880009;29;20123;-75
2022/03/07 03:28:13;;;;;;;1.77;1.38;;;;;;;0.41;54.38;98599.53;4863040;29;20155;-76
2022/03/07 03:30:38;;;;;;;2.35;1.73;;;;;;;0.36;54.59;98609.38;4883545;29;20050;-76
2022/03/07 03:33:03;;;;;;;2.72;1.48;;;;;;;0.39;54.32;98600.53;4883676;29;20127;-76
2022/03/07 03:35:28;;;;;;;2.40;1.52;;;;;;;0.27;55.11;98604.56;4882744;29;20052;-76
2022/03/07 03:37:53;;;;;;;3.28;1.77;;;;;;;0.27;54.88;98600.19;4882323;29;20044;-77
2022/03/07 03:40:18;;;;;;;3.28;1.23;;;;;;;0.22;55.52;98596.94;4882241;29;20571;-76
2022/03/07 03:42:43;;;;;;;1.45;1.27;;;;;;;0.26;55.15;98600.25;4882381;29;20048;-77
2022/03/07 03:45:09;;;;;;;1.55;1.30;;;;;;;0.25;55.30;98591.53;4882432;29;20463;-77
2022/03/07 03:47:38;;;;;;;4.30;1.52;;;;;;;0.24;55.02;98583.72;4882828;29;20059;-76
2022/03/07 03:50:04;;;;;;;8.75;1.80;;;;;;;0.19;55.59;98590.97;4883731;29;20542;-80
2022/03/07 03:52:30;;;;;;;2.15;1.35;;;;;;;0.19;55.01;98586.59;4836782;29;20112;-80
2022/03/07 03:54:55;;;;;;;4.07;1.48;;;;;;;0.18;55.40;98599.75;4865700;29;20056;-78
2022/03/07 03:57:20;;;;;;;5.03;2.25;;;;;;;0.14;55.65;98593.78;4848361;29;20356;-79
2022/03/07 03:59:46;;;;;;;3.22;1.73;;;;;;;0.17;55.38;98598.91;4863196;29;20137;-80
2022/03/07 04:02:11;;;;;;;1.77;1.27;;;;;;;0.20;55.75;98592.69;4864637;29;20135;-80
2022/03/07 04:04:36;;;;;;;4.00;2.50;;;;;;;0.15;55.89;98594.66;4870326;29;20052;-80
2022/03/07 04:07:00;;;;;;;7.60;2.00;;;;;;;0.11;56.07;98599.19;4857696;29;20048;-80
2022/03/07 04:09:25;;;;;;;2.90;1.58;;;;;;;0.07;55.74;98592.38;4848279;29;20045;-76
2022/03/07 04:11:50;;;;;;;3.50;1.77;;;;;;;0.10;55.59;98600.13;4864076;29;20052;-78
2022/03/07 04:14:15;;;;;;;3.60;2.35;;;;;;;0.08;56.08;98601.97;4863550;29;20526;-78
2022/03/07 04:16:41;;;;;;;1.42;1.33;;;;;;;0.10;55.47;98597.50;4868016;29;20049;-77
2022/03/07 04:19:07;;;;;;;3.85;1.90;;;;;;;0.13;55.85;98594.72;4894695;29;20051;-78
2022/03/07 04:21:35;;;;;;;3.30;2.15;;;;;;;0.11;56.24;98598.34;4878473;29;20131;-77
2022/03/07 04:24:00;;;;;;;2.88;1.70;;;;;;;0.13;56.36;98596.47;4863172;29;20487;-79
2022/03/07 04:26:27;;;;;;;3.20;2.22;;;;;;;0.23;55.60;98603.00;4895302;29;20041;-79
2022/03/07 04:28:52;;;;;;;5.68;2.00;;;;;;;0.23;55.74;98603.84;4864614;29;20064;-78
2022/03/07 04:31:16;;;;;;;5.47;2.25;;;;;;;0.18;56.14;98600.59;4863505;29;20051;-83
2022/03/07 04:33:41;;;;;;;7.00;2.70;;;;;;;0.26;55.59;98615.97;4847634;29;20052;-80
2022/03/07 04:36:06;;;;;;;3.08;1.67;;;;;;;0.25;55.26;98604.63;4868972;29;20055;-79
2022/03/07 04:38:31;;;;;;;5.30;2.83;;;;;;;0.28;55.55;98601.88;4870204;29;20468;-79
2022/03/07 04:40:56;;;;;;;2.53;2.05;;;;;;;0.28;55.49;98601.88;4866593;29;20048;-80
2022/03/07 04:43:21;;;;;;;4.90;2.90;;;;;;;0.21;55.71;98592.63;4894502;29;20052;-79
2022/03/07 04:45:46;;;;;;;4.40;2.58;;;;;;;0.22;55.90;98598.72;4874951;29;20077;-79
2022/03/07 04:48:11;;;;;;;5.20;2.53;;;;;;;0.21;55.85;98591.75;4885432;29;20052;-79
2022/03/07 04:50:36;;;;;;;7.13;2.30;;;;;;;0.26;55.67;98592.38;4887061;29;20084;-78
2022/03/07 04:53:00;;;;;;;3.10;1.73;;;;;;;0.23;55.72;98590.75;4872325;29;20152;-78
2022/03/07 04:55:25;;;;;;;2.30;2.10;;;;;;;0.22;56.16;98594.31;4872062;29;20033;-80
2022/03/07 04:57:50;;;;;;;6.40;3.05;;;;;;;0.19;56.30;98596.22;4871126;29;20060;-79
2022/03/07 05:00:16;;;;;;;6.95;2.63;;;;;;;0.22;56.12;98596.09;4887393;29;20029;-78
2022/03/07 05:02:41;;;;;;;3.75;2.35;;;;;;;0.29;56.10;98598.34;4888441;29;20043;-79
2022/03/07 05:05:06;;;;;;;6.20;2.65;;;;;;;0.34;55.73;98601.56;4887884;29;20028;-80
2022/03/07 05:07:30;;;;;;;4.43;2.42;;;;;;;0.18;56.14;98592.75;4880366;29;20140;-77
2022/03/07 05:09:55;;;;;;;7.38;2.45;;;;;;;0.29;55.64;98593.09;4864123;29;20200;-78
2022/03/07 05:12:20;;;;;;;9.77;3.55;;;;;;;0.27;56.21;98608.03;4862446;29;20048;-78
2022/03/07 05:14:45;;;;;;;6.38;3.35;;;;;;;0.30;55.55;98594.81;4863312;29;20044;-79
2022/03/07 05:17:09;;;;;;;4.78;2.53;;;;;;;0.38;55.59;98590.97;4862208;29;20101;-80
2022/03/07 05:19:34;;;;;;;3.67;2.60;;;;;;;0.45;56.00;98595.88;4862838;29;20044;-79
2022/03/07 05:21:59;;;;;;;3.13;2.53;;;;;;;0.43;55.75;98594.22;4863468;29;20056;-81
2022/03/07 05:24:25;;;;;;;6.05;2.58;;;;;;;0.39;55.96;98595.28;4862491;29;20048;-80
2022/03/07 05:26:50;;;;;;;5.03;2.42;;;;;;;0.46;55.58;98599.31;4862534;29;20179;-79
2022/03/07 05:29:15;;;;;;;3.60;2.30;;;;;;;0.54;55.36;98602.44;4846636;29;20139;-79
2022/03/07 05:31:40;;;;;;;2.30;1.77;;;;;;;0.57;54.97;98605.72;4862211;29;20207;-77
2022/03/07 05:34:05;;;;;;;3.42;1.95;;;;;;;0.58;55.03;98603.97;4862087;29;20092;-78
2022/03/07 05:36:29;;;;;;;6.60;2.03;;;;;;;0.63;55.06;98609.84;4862368;29;20045;-79
2022/03/07 05:38:54;;;;;;;7.13;2.30;;;;;;;0.67;54.66;98604.41;4861964;29;20104;-81
2022/03/07 05:41:19;;;;;;;3.85;2.00;;;;;;;0.67;54.92;98604.41;4863101;29;20080;-81
2022/03/07 05:43:44;;;;;;;6.57;2.72;;;;;;;0.61;55.17;98607.31;4862064;29;20068;-79
2022/03/07 05:46:09;;;;;;;3.33;1.70;;;;;;;0.66;55.07;98610.56;4862121;29;20120;-78
2022/03/07 05:48:34;;;;;;;7.88;2.65;;;;;;;0.68;55.21;98605.22;4846435;29;20044;-80
2022/03/07 05:50:58;;;;;;;6.97;2.45;;;;;;;0.71;55.09;98610.31;4862867;29;20053;-84
2022/03/07 05:53:23;;;;;;;3.25;1.83;;;;;;;0.72;55.05;98626.00;4832649;29;20044;-83
2022/03/07 05:55:49;;;;;;;1.88;1.48;;;;;;;0.83;54.98;98611.50;4879097;29;20044;-85
2022/03/07 05:58:14;;;;;;;2.75;2.00;;;;;;;0.87;54.62;98610.44;4832174;29;20040;-84
2022/03/07 06:00:39;;;;;;;5.40;2.40;;;;;;;0.91;54.31;98612.81;4832334;29;20487;-82
2022/03/07 06:03:04;;;;;;;3.47;2.05;;;;;;;0.87;54.25;98606.06;4878257;29;20040;-79
2022/03/07 06:05:31;;;;;;;4.00;1.80;;;;;;;0.90;54.37;98607.69;4863847;29;20500;-79
2022/03/07 06:07:56;;;;;;;5.35;2.25;;;;;;;0.96;53.92;98617.88;4863891;29;20522;-77
2022/03/07 06:10:21;;;;;;;4.80;2.40;;;;;;;1.02;53.85;98612.31;4861467;29;20499;-78
2022/03/07 06:12:46;;;;;;;4.22;2.42;;;;;;;1.06;53.80;98625.22;4862627;29;20053;-79
2022/03/07 06:15:11;;;;;;;5.57;1.85;;;;;;;1.01;53.99;98629.00;4862450;29;20404;-76
2022/03/07 06:17:36;;;;;;;2.30;1.73;;;;;;;1.01;53.51;98619.34;4845795;29;20464;-76
2022/03/07 06:20:01;;;;;;;1.88;1.35;;;;;;;1.01;53.87;98614.09;4862721;29;20055;-78
2022/03/07 06:22:27;;;;;;;2.85;1.90;;;;;;;0.96;54.17;98617.88;4868008;29;20135;-80
2022/03/07 06:24:52;;;;;;;3.28;1.42;;;;;;;0.99;53.65;98615.09;4877244;29;20059;-80
2022/03/07 06:27:17;;;;;;;10.95;2.58;;;;;;;1.01;53.72;98616.72;4881474;29;20044;-79
2022/03/07 06:29:41;;;;;;;5.05;2.08;;;;;;;0.94;53.52;98622.34;4863371;29;20139;-78
2022/03/07 06:32:06;;;;;;;4.10;2.05;;;;;;;0.98;53.94;98629.16;4877157;29;20048;-78
2022/03/07 06:34:33;;;;;;;5.07;2.50;;;;;;;0.89;53.61;98626.97;4863255;29;20053;-78
2022/03/07 06:36:58;;;;;;;1.67;1.55;;;;;;;0.95;53.27;98618.78;4862560;29;20064;-79
2022/03/07 06:39:25;;;;;;;4.30;1.98;;;;;;;0.99;53.12;98620.34;4861348;29;20099;-77
2022/03/07 06:41:50;;;;;;;9.05;2.63;;;;;;;0.93;53.37;98629.34;4862278;29;20044;-78
2022/03/07 06:44:15;;;;;;;6.00;1.98;;;;;;;0.98;53.47;98634.38;4845625;29;20500;-78
2022/03/07 06:46:40;;;;;;;3.88;1.75;;;;;;;1.09;53.44;98647.84;4860988;29;20385;-80
2022/03/07 06:49:05;;;;;;;2.22;1.70;;;;;;;1.14;53.26;98631.84;4860511;29;20060;-78
2022/03/07 06:51:30;;;;;;;4.93;2.63;;;;;;;1.14;53.49;98631.84;4860911;29;20041;-80
2022/03/07 06:53:54;;;;;;;5.72;2.58;;;;;;;1.17;53.23;98644.81;4862354;29;20055;-80
2022/03/07 06:56:19;;;;;;;4.72;1.98;;;;;;;1.28;53.10;98632.00;4844887;29;20051;-78
2022/03/07 06:58:46;;;;;;;2.85;1.85;;;;;;;1.22;52.95;98633.19;4860396;29;20056;-80
2022/03/07 07:01:10;;;;;;;7.35;2.35;;;;;;;1.20;53.26;98629.78;4860267;29;20051;-77
2022/03/07 07:03:36;;;;;;;2.83;1.83;;;;;;;1.27;53.25;98632.94;4861370;29;20052;-79
2022/03/07 07:06:01;;;;;;;6.43;2.53;;;;;;;1.25;52.99;98638.25;4860327;29;20043;-79
2022/03/07 07:08:26;;;;;;;5.72;1.73;;;;;;;1.19;53.21;98637.72;4860407;29;20055;-77
2022/03/07 07:10:50;;;;;;;4.28;2.47;;;;;;;1.09;53.55;98637.34;4844774;29;20052;-80
2022/03/07 07:13:16;;;;;;;4.43;2.67;;;;;;;1.09;53.69;98637.34;4830137;29;20041;-79
2022/03/07 07:15:42;;;;;;;3.45;2.03;;;;;;;1.12;53.26;98634.56;4844857;29;20500;-79
2022/03/07 07:18:06;;;;;;;3.50;1.60;;;;;;;1.19;53.30;98638.59;4844872;29;20131;-75
2022/03/07 07:20:31;;;;;;;2.97;1.63;;;;;;;1.20;53.44;98639.44;4859934;29;20148;-76
2022/03/07 07:22:56;;;;;;;5.85;2.10;;;;;;;1.23;53.65;98640.13;4860120;29;20559;-76
2022/03/07 07:25:20;;;;;;;5.07;2.70;;;;;;;1.19;53.83;98628.06;4861729;29;20068;-77
2022/03/07 07:27:45;;;;;;;9.98;2.80;;;;;;;1.20;53.68;98636.81;4859939;29;20056;-76
2022/03/07 07:30:11;;;;;;;4.13;3.28;;;;;;;1.22;53.80;98621.84;4859692;29;20202;-77
2022/03/07 07:32:38;;;;;;;5.68;3.05;;;;;;;1.25;53.45;98626.91;4859996;29;20420;-77
2022/03/07 07:35:04;;;;;;;6.50;3.05;;;;;;;1.32;53.10;98625.69;4859529;29;20079;-76
2022/03/07 07:37:28;;;;;;;7.38;2.85;;;;;;;1.26;53.43;98623.34;4861345;29;20064;-75
2022/03/07 07:39:53;;;;;;;3.72;2.10;;;;;;;1.24;53.44;98620.00;4844237;29;20055;-76
2022/03/07 07:42:18;;;;;;;5.88;2.22;;;;;;;1.40;53.03;98615.66;4859655;29;20044;-76
2022/03/07 07:44:44;;;;;;;4.75;2.38;;;;;;;1.52;52.39;98620.28;4859795;29;20060;-76
2022/03/07 07:47:09;;;;;;;10.65;2.72;;;;;;;1.69;52.86;98622.03;4859898;29;20041;-75
2022/03/07 07:49:34;;;;;;;8.55;3.03;;;;;;;1.77;51.87;98622.50;4861805;29;20463;-77
2022/03/07 07:51:59;;;;;;;3.22;2.22;;;;;;;1.70;52.47;98624.56;4844689;29;20495;-75
2022/03/07 07:54:23;;;;;;;8.48;2.55;;;;;;;1.91;51.79;98619.16;4859429;29;20052;-74
2022/03/07 07:56:48;;;;;;;5.65;2.08;;;;;;;1.95;51.62;98625.91;4828662;29;20048;-76
2022/03/07 07:59:13;;;;;;;6.18;2.90;;;;;;;2.07;51.16;98631.38;4859629;29;20056;-75
2022/03/07 08:01:38;;;;;;;5.93;2.97;;;;;;;2.09;51.39;98615.53;4860872;29;20401;-77
2022/03/07 08:04:03;;;;;;;4.53;2.30;;;;;;;2.19;51.44;98619.34;4860964;29;20048;-76
2022/03/07 08:06:28;;;;;;;6.57;2.72;;;;;;;2.28;50.82;98616.22;4861291;29;20041;-76
2022/03/07 08:08:53;;;;;;;3.83;2.33;;;;;;;2.34;51.18;98620.31;4861146;29;20055;-79
2022/03/07 08:11:17;;;;;;;11.02;3.78;;;;;;;2.45;50.80;98625.84;4860188;29;20051;-78
2022/03/07 08:13:42;;;;;;;4.13;2.65;;;;;;;2.46;50.67;98623.13;4893021;29;20528;-77
2022/03/07 08:16:07;;;;;;;5.60;2.83;;;;;;;2.55;50.09;98632.28;4874537;29;20040;-79
2022/03/07 08:18:32;;;;;;;6.75;2.78;;;;;;;2.50;50.30;98613.25;4860149;29;20431;-78
2022/03/07 08:20:59;;;;;;;5.05;2.50;;;;;;;2.53;49.78;98606.06;4876946;29;20116;-77
2022/03/07 08:23:24;;;;;;;7.10;2.38;;;;;;;2.56;50.17;98605.06;4848420;29;20602;-77
2022/03/07 08:25:49;;;;;;;6.18;2.97;;;;;;;2.59;49.84;98610.16;4862791;29;20115;-75
2022/03/07 08:28:14;;;;;;;3.38;2.30;;;;;;;2.67;50.11;98623.72;4848962;29;20056;-76
2022/03/07 08:30:39;;;;;;;8.27;2.97;;;;;;;2.66;49.61;98615.91;4849515;29;20449;-78
2022/03/07 08:33:04;;;;;;;6.80;3.30;;;;;;;2.76;49.73;98617.09;4864738;29;20073;-76
2022/03/07 08:35:29;;;;;;;4.32;2.53;;;;;;;2.94;49.62;98629.19;4853332;29;20036;-77
2022/03/07 08:37:54;;;;;;;3.28;2.28;;;;;;;2.98;49.36;98616.72;4864271;29;20063;-77
2022/03/07 08:40:20;;;;;;;4.30;2.10;;;;;;;3.24;48.54;98618.72;4831612;29;20515;-77
2022/03/07 08:42:45;;;;;;;3.83;2.33;;;;;;;3.44;48.08;98614.91;4894408;29;20095;-78
2022/03/07 08:45:11;;;;;;;3.45;2.20;;;;;;;3.63;47.89;98611.06;4863104;29;20044;-77
2022/03/07 08:47:38;;;;;;;2.40;1.75;;;;;;;3.74;47.33;98622.75;4862819;29;20054;-78
2022/03/07 08:50:04;;;;;;;4.30;2.10;;;;;;;3.86;47.40;98614.13;4862416;29;20041;-78
2022/03/07 08:52:29;;;;;;;5.85;2.55;;;;;;;3.94;46.84;98619.78;4862955;29;20063;-77
2022/03/07 08:54:54;;;;;;;2.90;2.13;;;;;;;4.26;46.52;98616.03;4846831;29;20045;-79
2022/03/07 08:57:19;;;;;;;3.72;2.22;;;;;;;4.45;46.22;98618.34;4847066;29;20143;-81
2022/03/07 08:59:43;;;;;;;2.25;1.63;;;;;;;4.68;45.03;98608.97;4862292;29;20049;-78
2022/03/07 09:02:10;;;;;;;7.13;2.35;;;;;;;4.82;45.15;98608.09;4894158;29;20067;-80
2022/03/07 09:04:36;;;;;;;6.00;2.72;;;;;;;4.85;45.06;98607.91;4862434;29;20500;-81
2022/03/07 09:07:02;;;;;;;7.18;2.42;;;;;;;4.64;45.26;98610.09;4893819;29;20052;-79
2022/03/07 09:09:27;;;;;;;4.55;1.77;;;;;;;4.67;45.15;98605.47;4862378;29;20036;-80
2022/03/07 09:11:52;;;;;;;4.85;2.35;;;;;;;4.68;44.82;98599.25;4862109;29;20037;-79
2022/03/07 09:14:17;;;;;;;3.35;1.58;;;;;;;4.85;44.80;98611.38;4862362;29;20047;-80
2022/03/07 09:16:42;;;;;;;4.53;2.08;;;;;;;4.69;44.73;98602.75;4864100;29;20033;-80
2022/03/07 09:19:07;;;;;;;7.00;3.03;;;;;;;4.89;44.52;98609.38;4846581;29;20041;-80
2022/03/07 09:21:32;;;;;;;5.65;1.92;;;;;;;5.31;43.94;98590.69;4865455;29;20132;-80
2022/03/07 09:23:57;;;;;;;5.80;2.33;;;;;;;6.00;42.93;98602.75;4863103;29;20063;-76
2022/03/07 09:26:21;;;;;;;2.72;2.15;;;;;;;6.72;41.73;98598.50;4847354;29;20131;-76
2022/03/07 09:28:47;;;;;;;7.80;2.47;;;;;;;7.23;40.10;98598.25;4837002;29;20491;-75
2022/03/07 09:31:11;;;;;;;3.30;2.20;;;;;;;7.51;39.16;98618.25;4869910;29;20048;-78
2022/03/07 09:33:39;;;;;;;2.97;1.83;;;;;;;7.85;38.50;98600.63;4864803;29;20103;-79
2022/03/07 09:36:04;;;;;;;4.82;1.90;;;;;;;8.38;38.00;98605.28;4852771;29;20471;-78
2022/03/07 09:38:30;;;;;;;3.83;2.03;;;;;;;8.99;36.72;98600.38;4834368;29;20059;-80
2022/03/07 09:40:56;;;;;;;3.85;2.25;;;;;;;9.41;36.49;98587.16;4863540;29;20052;-77
2022/03/07 09:43:22;;;;;;;5.35;2.40;;;;;;;9.31;35.54;98588.88;4852466;29;20052;-77
2022/03/07 09:45:47;;;;;;;5.18;1.95;;;;;;;10.10;34.91;98582.97;4867787;29;20127;-77
2022/03/07 09:48:13;;;;;;;5.55;2.30;;;;;;;11.10;32.90;98583.88;4870701;29;20044;-78
2022/03/07 09:50:40;;;;;;;3.92;2.00;;;;;;;12.25;31.28;98593.63;4871364;29;20075;-81
2022/03/07 09:53:05;;;;;;;5.53;2.13;;;;;;;13.37;29.16;98587.13;4871766;29;20044;-78
2022/03/07 09:55:30;;;;;;;6.35;2.50;;;;;;;14.03;28.30;98581.31;4886380;29;20037;-79
2022/03/07 09:57:55;;;;;;;2.63;1.90;;;;;;;14.38;27.21;98582.19;4865082;29;20083;-79
2022/03/07 10:00:19;;;;;;;2.72;2.47;;;;;;;14.31;27.84;98583.84;4831397;29;20488;-78
2022/03/07 10:02:59;;;;;;;4.20;2.10;;;;;;;14.01;26.79;98585.13;4861911;29;20056;-78
2022/03/07 10:05:28;;;;;;;3.35;1.83;;;;;;;12.89;28.28;98586.59;4847634;29;20048;-80
2022/03/07 10:07:56;;;;;;;4.05;2.67;;;;;;;12.68;29.40;98592.19;4833114;29;20112;-78
2022/03/07 10:10:22;;;;;;;3.88;2.00;;;;;;;12.72;28.47;98607.81;4832518;29;20056;-79
2022/03/07 10:12:49;;;;;;;3.58;2.25;;;;;;;12.56;28.61;98580.84;4847315;29;20047;-82
2022/03/07 10:15:17;;;;;;;2.70;2.20;;;;;;;11.99;28.85;98571.22;4845546;29;20052;-80
2022/03/07 10:17:54;;;;;;;2.72;1.75;;;;;;;11.39;29.35;98573.25;4861054;29;20056;-79
2022/03/07 10:20:23;;;;;;;5.30;2.45;;;;;;;11.14;30.20;98579.13;4846157;29;20500;-81
2022/03/07 10:22:54;;;;;;;5.68;1.92;;;;;;;10.86;30.72;98576.25;4830371;29;20079;-80
2022/03/07 10:25:23;;;;;;;3.00;1.83;;;;;;;10.26;30.97;98577.22;4845862;29;20457;-80
2022/03/07 10:27:49;;;;;;;3.13;2.47;;;;;;;9.83;32.27;98583.53;4845348;29;20052;-80
2022/03/07 10:30:18;;;;;;;4.13;2.45;;;;;;;9.62;32.01;98582.69;4862444;29;20048;-78
2022/03/07 10:32:50;;;;;;;3.15;1.90;;;;;;;9.46;32.51;98593.78;4845294;29;20053;-78
2022/03/07 10:35:53;;;;;;;3.40;1.77;;;;;;;9.07;32.02;98584.63;4861904;29;20048;-79
2022/03/07 10:38:23;;;;;;;9.32;2.42;;;;;;;8.56;32.69;98591.53;4840708;29;20527;-78
2022/03/07 10:40:53;;;;;;;2.35;1.65;;;;;;;8.21;33.40;98587.16;4854907;29;20057;-68
2022/03/07 10:43:20;;;;;;;2.53;2.17;;;;;;;7.50;34.71;98590.91;4851537;29;20104;-75
2022/03/07 10:45:50;;;;;;;5.55;1.83;;;;;;;7.27;35.23;98583.81;4844476;29;20057;-76
2022/03/07 10:48:17;;;;;;;6.45;2.78;;;;;;;7.02;35.52;98574.19;4841703;29;20049;-77
2022/03/07 10:50:54;;;;;;;5.15;3.53;;;;;;;7.41;35.31;98590.75;4826492;29;20059;-75
2022/03/07 10:53:19;;;;;;;2.05;1.25;;;;;;;7.30;35.17;98583.59;4811637;29;20136;-77
2022/03/07 10:55:59;;;;;;;1.90;1.60;;;;;;;7.30;35.47;98583.59;4826278;29;20049;-71
2022/03/07 10:58:24;;;;;;;3.13;1.80;;;;;;;6.81;35.75;98583.72;4825583;29;20621;-80
2022/03/07 11:00:52;;;;;;;2.13;1.65;;;;;;;6.49;36.39;98589.56;4827442;29;20045;-79
2022/03/07 11:03:23;;;;;;;6.40;2.47;;;;;;;5.75;37.75;98589.50;4797240;29;20520;-77
2022/03/07 11:05:48;;;;;;;3.88;2.85;;;;;;;5.40;38.32;98590.09;4826915;29;20056;-71
2022/03/07 11:08:15;;;;;;;2.58;1.65;;;;;;;5.24;39.27;98596.50;4825157;29;20045;-73
2022/03/07 11:10:45;;;;;;;7.72;1.90;;;;;;;5.22;39.58;98596.59;4841322;29;20100;-76
2022/03/07 11:13:11;;;;;;;3.03;2.08;;;;;;;5.33;39.75;98591.44;4883807;29;20040;-78
2022/03/07 11:15:36;;;;;;;4.00;1.30;;;;;;;5.31;39.46;98584.56;4917294;28;20044;-77
2022/03/07 11:18:01;;;;;;;6.07;1.73;;;;;;;5.10;39.49;98586.84;4886100;29;20613;-76
2022/03/07 11:20:27;;;;;;;4.03;2.05;;;;;;;5.27;39.49;98586.59;4883959;29;20052;-73
2022/03/07 11:22:52;;;;;;;8.52;2.60;;;;;;;5.36;39.63;98585.97;4875121;29;20069;-73
2022/03/07 11:25:18;;;;;;;7.43;2.55;;;;;;;5.44;38.96;98586.28;4860419;29;20053;-73
2022/03/07 11:27:44;;;;;;;6.28;2.83;;;;;;;5.21;39.53;98583.47;4870567;29;20048;-78
2022/03/07 11:30:35;;;;;;;6.00;2.60;;;;;;;5.26;40.00;98582.25;4865434;29;20048;-76
2022/03/07 11:33:11;;;;;;;2.90;1.98;;;;;;;5.24;39.32;98588.56;4847407;29;20056;-77
2022/03/07 11:35:37;;;;;;;5.38;1.88;;;;;;;5.36;38.91;98591.25;4861755;29;20353;-76